Euskara    
Meteorología y climatología de Navarra
Datos de la estación - Meteo Navarra

Estación de Aguilar de Codés GN

Altitud 736 m.


Datos desde el 23/02/2021 hasta el 24/02/2021 en horario solar
Los datos son PROVISIONALES

Anterior Página 1 de 1 Siguiente Descargar: Formato para Excel 2000 o superior   Formato csv   Formato para OpenOffice Calc
Fecha Temperatura Humedad relativa Radiación global Insolación Precipitación Vel. viento 10 m Vel. viento 10 m Dir. viento 10 m
°C % W/m² s l/m² m/s km/h °
23/02/2021 0:00 3.4 97 0.0 0 0.0 0.5 1.9 116
23/02/2021 0:10 3.3 97 0.0 0 0.0 0.4 1.4 354
23/02/2021 0:20 3.4 97 0.0 0 0.0 0.4 1.3 11
23/02/2021 0:30 3.5 97 0.0 0 0.0 0.6 2.2 78
23/02/2021 0:40 3.5 97 0.0 0 0.0 0.5 1.9 356
23/02/2021 0:50 3.4 97 0.0 0 0.0 0.3 1.0 29
23/02/2021 1:00 3.8 97 0.0 0 0.0 0.2 0.6 326
23/02/2021 1:10 3.8 97 0.0 0 0.0 0.2 0.8 179
23/02/2021 1:20 3.7 97 0.0 0 0.0 0.4 1.5 181
23/02/2021 1:30 3.8 97 0.0 0 0.0 0.2 0.6 24
23/02/2021 1:40 3.8 97 0.0 0 0.0 0.7 2.4 163
23/02/2021 1:50 4.0 96 0.0 0 0.0 1.0 3.7 190
23/02/2021 2:00 4.0 96 0.0 0 0.0 1.6 5.9 182
23/02/2021 2:10 3.8 96 0.0 0 0.0 1.1 4.1 161
23/02/2021 2:20 4.1 96 0.0 0 0.0 0.7 2.7 124
23/02/2021 2:30 4.1 96 0.0 0 0.0 0.6 2.1 81
23/02/2021 2:40 4.2 96 0.0 0 0.0 1.4 5.0 89
23/02/2021 2:50 4.2 96 0.0 0 0.0 2.3 8.4 99
23/02/2021 3:00 4.2 96 0.0 0 0.0 2.4 8.5 100
23/02/2021 3:10 4.0 96 0.0 0 0.0 1.9 6.9 107
23/02/2021 3:20 3.9 97 0.0 0 0.0 1.9 6.9 109
23/02/2021 3:30 3.9 97 0.0 0 0.0 2.3 8.2 118
23/02/2021 3:40 3.9 97 0.0 0 0.0 2.1 7.6 125
23/02/2021 3:50 4.0 97 0.0 0 0.0 1.9 6.8 145
23/02/2021 4:00 4.0 97 0.0 0 0.0 2.2 7.9 141
23/02/2021 4:10 4.0 97 0.0 0 0.0 2.0 7.2 127
23/02/2021 4:20 4.1 98 0.0 0 0.0 2.3 8.3 120
23/02/2021 4:30 4.1 98 0.0 0 0.0 2.2 8.0 123
23/02/2021 4:40 4.1 98 0.0 0 0.0 2.1 7.4 119
23/02/2021 4:50 4.1 98 0.0 0 0.0 2.1 7.7 118
23/02/2021 5:00 4.1 98 0.0 0 0.0 2.2 7.9 119
23/02/2021 5:10 4.0 98 0.0 0 0.0 2.0 7.3 125
23/02/2021 5:20 4.1 98 0.0 0 0.0 2.5 8.9 122
23/02/2021 5:30 4.1 98 0.0 0 0.0 3.0 10.9 118
23/02/2021 5:40 4.0 98 0.0 0 0.0 3.0 10.9 109
23/02/2021 5:50 4.1 98 0.0 0 0.0 3.4 12.3 117
23/02/2021 6:00 4.0 98 0.0 0 0.0 3.8 13.8 121
23/02/2021 6:10 4.0 98 0.0 0 0.0 4.0 14.4 120
23/02/2021 6:20 3.9 98 0.0 0 0.0 3.4 12.3 111
23/02/2021 6:30 3.8 98 0.0 0 0.0 3.7 13.5 117
23/02/2021 6:40 3.8 98 0.0 0 0.0 3.0 10.7 119
23/02/2021 6:50 3.7 98 0.0 0 0.0 2.8 10.0 118
23/02/2021 7:00 3.7 98 0.0 0 0.0 3.1 11.0 109
23/02/2021 7:10 3.5 98 0.0 0 0.0 3.3 12.0 117
23/02/2021 7:20 3.6 98 5.1 0 0.0 3.6 13.0 116
23/02/2021 7:30 3.6 98 18.6 0 0.0 3.4 12.1 113
23/02/2021 7:40 3.6 98 28.3 0 0.0 3.2 11.6 109
23/02/2021 7:50 3.6 98 38.9 0 0.0 3.0 10.9 112
23/02/2021 8:00 3.6 98 51.0 2 0.0 3.2 11.5 108
23/02/2021 8:10 3.7 98 70.6 40 0.0 2.7 9.7 102
23/02/2021 8:20 3.6 98 117.1 196 0.0 3.0 10.9 112
23/02/2021 8:30 3.9 98 202.1 418 0.0 3.1 11.3 120
23/02/2021 8:40 4.4 98 275.0 596 0.0 3.0 10.7 118
23/02/2021 8:50 5.0 98 308.0 600 0.0 3.7 13.4 114
23/02/2021 9:00 5.3 98 339.5 600 0.0 3.7 13.4 111
23/02/2021 9:10 5.7 98 371.0 600 0.0 4.2 15.0 110
23/02/2021 9:20 6.3 95 314.3 436 0.0 4.0 14.2 113
23/02/2021 9:30 6.3 90 334.5 454 0.0 4.2 15.0 107
23/02/2021 9:40 6.6 88 430.0 574 0.0 4.1 14.8 108
23/02/2021 9:50 6.8 85 416.2 468 0.0 4.4 16.0 106
23/02/2021 10:00 7.0 83 430.5 466 0.0 4.4 15.7 105
23/02/2021 10:10 6.7 84 481.5 498 0.0 4.5 16.3 99
23/02/2021 10:20 7.0 84 502.4 554 0.0 4.8 17.4 100
23/02/2021 10:30 7.6 82 567.4 564 0.0 5.6 20.2 102
23/02/2021 10:40 7.8 81 586.4 528 0.0 5.7 20.4 102
23/02/2021 10:50 8.7 80 626.6 600 0.0 5.3 18.9 109
23/02/2021 11:00 9.0 76 619.4 588 0.0 5.9 21.3 108
23/02/2021 11:10 9.0 75 627.2 570 0.0 5.4 19.5 103
23/02/2021 11:20 9.1 74 654.5 594 0.0 5.2 18.7 104
23/02/2021 11:30 9.3 72 648.2 600 0.0 5.5 19.8 107
23/02/2021 11:40 9.4 71 655.3 600 0.0 5.5 19.7 105
23/02/2021 11:50 9.6 72 662.0 600 0.0 6.0 21.5 110
23/02/2021 12:00 10.0 72 645.0 576 0.0 5.9 21.1 111
23/02/2021 12:10 10.0 72 630.5 524 0.0 5.3 19.2 103
23/02/2021 12:20 10.3 71 645.2 542 0.0 5.5 19.7 107
23/02/2021 12:30 10.6 70 687.8 600 0.0 6.0 21.5 108
23/02/2021 12:40 10.7 71 681.3 586 0.0 5.7 20.4 105
23/02/2021 12:50 10.8 71 683.0 596 0.0 5.9 21.3 102
23/02/2021 13:00 10.9 70 686.1 598 0.0 6.0 21.7 105
23/02/2021 13:10 11.1 70 670.6 600 0.0 6.2 22.4 106
23/02/2021 13:20 11.2 69 660.8 600 0.0 5.7 20.4 105
23/02/2021 13:30 11.6 68 649.9 600 0.0 6.1 22.0 114
23/02/2021 13:40 11.6 68 641.8 600 0.0 5.8 20.9 111
23/02/2021 13:50 11.9 66 623.5 600 0.0 6.0 21.4 112
23/02/2021 14:00 11.5 67 613.3 600 0.0 6.3 22.5 117
23/02/2021 14:10 11.6 66 594.4 600 0.0 6.2 22.2 121
23/02/2021 14:20 11.6 66 573.4 600 0.0 6.0 21.7 119
23/02/2021 14:30 11.6 65 555.4 600 0.0 6.0 21.6 110
23/02/2021 14:40 11.7 65 530.9 600 0.0 6.3 22.5 117
23/02/2021 14:50 11.7 65 510.2 600 0.0 5.9 21.2 124
23/02/2021 15:00 11.7 65 485.6 600 0.0 6.0 21.5 120
23/02/2021 15:10 11.8 64 460.9 600 0.0 5.7 20.4 116
23/02/2021 15:20 11.7 63 434.8 600 0.0 6.1 21.9 110
23/02/2021 15:30 11.6 63 407.9 600 0.0 5.8 21.0 118
23/02/2021 15:40 11.6 63 380.4 600 0.0 5.2 18.7 107
23/02/2021 15:50 11.5 64 349.8 600 0.0 6.3 22.5 122
23/02/2021 16:00 11.4 64 319.3 600 0.0 6.4 22.9 122
23/02/2021 16:10 11.2 64 287.5 600 0.0 5.9 21.1 113
23/02/2021 16:20 11.1 64 256.6 600 0.0 6.2 22.5 116
23/02/2021 16:30 11.0 65 225.2 600 0.0 5.2 18.8 118
23/02/2021 16:40 11.0 66 194.7 600 0.0 5.6 20.3 121
23/02/2021 16:50 10.9 67 163.6 600 0.0 5.2 18.6 115
23/02/2021 17:00 10.6 68 133.2 600 0.0 5.1 18.4 113
23/02/2021 17:10 10.3 68 93.3 534 0.0 4.9 17.6 110
23/02/2021 17:20 9.8 70 29.2 0 0.0 4.9 17.6 111
23/02/2021 17:30 9.5 72 23.7 0 0.0 4.1 14.6 110
23/02/2021 17:40 9.4 72 18.4 0 0.0 4.7 16.9 114
23/02/2021 17:50 9.1 73 1.7 0 0.0 4.3 15.3 115
23/02/2021 18:00 8.7 73 0.0 0 0.0 4.7 16.8 116
23/02/2021 18:10 8.5 74 0.0 0 0.0 4.5 16.1 119
23/02/2021 18:20 8.4 74 0.0 0 0.0 4.4 15.8 112
23/02/2021 18:30 8.1 75 0.0 0 0.0 3.6 12.9 109
23/02/2021 18:40 7.9 77 0.0 0 0.0 3.6 13.1 113
23/02/2021 18:50 7.9 78 0.0 0 0.0 4.0 14.5 111
23/02/2021 19:00 7.7 78 0.0 0 0.0 4.2 15.2 116
23/02/2021 19:10 7.8 78 0.0 0 0.0 4.4 15.9 114
23/02/2021 19:20 7.8 78 0.0 0 0.0 4.2 15.2 113
23/02/2021 19:30 7.7 79 0.0 0 0.0 4.1 14.6 116
23/02/2021 19:40 7.6 79 0.0 0 0.0 4.8 17.3 120
23/02/2021 19:50 7.6 80 0.0 0 0.0 3.9 14.0 123
23/02/2021 20:00 7.3 81 0.0 0 0.0 3.4 12.2 122
23/02/2021 20:10 7.2 82 0.0 0 0.0 3.0 10.9 112
23/02/2021 20:20 7.2 83 0.0 0 0.0 3.3 11.8 108
23/02/2021 20:30 7.2 83 0.0 0 0.0 3.1 11.2 107
23/02/2021 20:40 7.1 84 0.0 0 0.0 2.5 8.8 102
23/02/2021 20:50 6.8 85 0.0 0 0.0 2.9 10.5 109
23/02/2021 21:00 6.9 85 0.0 0 0.0 2.9 10.4 105
23/02/2021 21:10 6.9 86 0.0 0 0.0 3.0 10.9 110
23/02/2021 21:20 6.8 87 0.0 0 0.0 3.5 12.6 111
23/02/2021 21:30 6.7 88 0.0 0 0.0 3.6 13.1 112
23/02/2021 21:40 6.7 88 0.0 0 0.0 3.9 13.9 110
23/02/2021 21:50 6.7 88 0.0 0 0.0 3.8 13.7 106
23/02/2021 22:00 6.8 89 0.0 0 0.0 4.6 16.5 114
23/02/2021 22:10 6.9 89 0.0 0 0.0 4.6 16.6 115
23/02/2021 22:20 7.1 88 0.0 0 0.0 5.7 20.5 116
23/02/2021 22:30 7.1 87 0.0 0 0.0 5.7 20.7 118
23/02/2021 22:40 7.0 88 0.0 0 0.0 5.3 19.2 119
23/02/2021 22:50 7.1 88 0.0 0 0.0 5.4 19.6 121
23/02/2021 23:00 7.1 88 0.0 0 0.0 5.1 18.5 119
23/02/2021 23:10 7.2 88 0.0 0 0.0 5.3 19.2 123
23/02/2021 23:20 6.9 88 0.0 0 0.0 4.9 17.7 122
23/02/2021 23:30 6.9 89 0.0 0 0.0 5.0 18.1 121
23/02/2021 23:40 6.8 89 0.0 0 0.0 4.6 16.4 121
23/02/2021 23:50 6.9 89 0.0 0 0.0 4.0 14.5 114
Anterior Página 1 de 1 Siguiente

NOTA: Tipo de datos según el color:
   - Valores diarios o 10 minutos correctos
   - Valores diarios calculados a partir de un número de datos 10 minutos menor que 144 y mayor que 120, o de un número de datos semihorarios menor que 48 y mayor que 40 (caso de las estaciones de INTIA Y Ministerio)
   - Valores diez minutos estimados


Contacto        Enlaces        Aviso legal